sensor_id;sensor_type;location;lat;lon;timestamp;P1;durP1;ratioP1;P2;durP2;ratioP2
7179;SDS011;3631;42.152;24.756;2023-08-20T00:00:43;16.50;;;11.82;;
7179;SDS011;3631;42.152;24.756;2023-08-20T00:03:21;15.02;;;13.32;;
7179;SDS011;3631;42.152;24.756;2023-08-20T00:06:16;13.20;;;12.00;;
7179;SDS011;3631;42.152;24.756;2023-08-20T00:09:28;14.88;;;13.30;;
7179;SDS011;3631;42.152;24.756;2023-08-20T00:12:17;16.13;;;12.77;;
7179;SDS011;3631;42.152;24.756;2023-08-20T00:18:35;13.38;;;11.95;;
7179;SDS011;3631;42.152;24.756;2023-08-20T00:21:50;13.75;;;11.00;;
7179;SDS011;3631;42.152;24.756;2023-08-20T00:24:44;12.50;;;11.30;;
7179;SDS011;3631;42.152;24.756;2023-08-20T00:27:55;14.57;;;12.13;;
7179;SDS011;3631;42.152;24.756;2023-08-20T00:34:21;13.88;;;12.38;;
7179;SDS011;3631;42.152;24.756;2023-08-20T00:37:19;13.52;;;12.32;;
7179;SDS011;3631;42.152;24.756;2023-08-20T00:40:07;14.20;;;12.30;;
7179;SDS011;3631;42.152;24.756;2023-08-20T00:43:28;13.50;;;12.10;;
7179;SDS011;3631;42.152;24.756;2023-08-20T00:46:25;16.92;;;12.50;;
7179;SDS011;3631;42.152;24.756;2023-08-20T00:49:35;11.75;;;10.82;;
7179;SDS011;3631;42.152;24.756;2023-08-20T00:52:29;15.32;;;11.10;;
7179;SDS011;3631;42.152;24.756;2023-08-20T00:55:33;15.70;;;12.93;;
7179;SDS011;3631;42.152;24.756;2023-08-20T00:58:27;14.52;;;12.98;;
7179;SDS011;3631;42.152;24.756;2023-08-20T01:01:16;16.02;;;14.32;;
7179;SDS011;3631;42.152;24.756;2023-08-20T01:07:03;13.00;;;11.80;;
7179;SDS011;3631;42.152;24.756;2023-08-20T01:10:05;13.93;;;12.52;;
7179;SDS011;3631;42.152;24.756;2023-08-20T01:13:12;15.07;;;11.85;;
7179;SDS011;3631;42.152;24.756;2023-08-20T01:16:10;14.10;;;12.70;;
7179;SDS011;3631;42.152;24.756;2023-08-20T01:19:29;14.75;;;12.27;;
7179;SDS011;3631;42.152;24.756;2023-08-20T01:25:54;16.98;;;12.55;;
7179;SDS011;3631;42.152;24.756;2023-08-20T01:29:05;14.52;;;13.20;;
7179;SDS011;3631;42.152;24.756;2023-08-20T01:32:02;13.98;;;12.57;;
7179;SDS011;3631;42.152;24.756;2023-08-20T01:35:02;15.43;;;12.45;;
7179;SDS011;3631;42.152;24.756;2023-08-20T01:37:47;14.15;;;12.93;;
7179;SDS011;3631;42.152;24.756;2023-08-20T01:40:45;16.85;;;13.32;;
7179;SDS011;3631;42.152;24.756;2023-08-20T01:43:35;14.45;;;13.05;;
7179;SDS011;3631;42.152;24.756;2023-08-20T01:46:44;13.68;;;11.88;;
7179;SDS011;3631;42.152;24.756;2023-08-20T01:49:20;14.60;;;13.20;;
7179;SDS011;3631;42.152;24.756;2023-08-20T01:52:25;16.15;;;12.88;;
7179;SDS011;3631;42.152;24.756;2023-08-20T01:55:27;14.85;;;13.48;;
7179;SDS011;3631;42.152;24.756;2023-08-20T01:58:32;14.55;;;13.05;;
7179;SDS011;3631;42.152;24.756;2023-08-20T02:01:43;15.18;;;13.50;;
7179;SDS011;3631;42.152;24.756;2023-08-20T02:04:24;16.58;;;13.90;;
7179;SDS011;3631;42.152;24.756;2023-08-20T02:07:13;15.52;;;13.93;;
7179;SDS011;3631;42.152;24.756;2023-08-20T02:10:26;18.20;;;14.63;;
7179;SDS011;3631;42.152;24.756;2023-08-20T02:13:29;18.67;;;13.77;;
7179;SDS011;3631;42.152;24.756;2023-08-20T02:16:27;14.85;;;13.40;;
7179;SDS011;3631;42.152;24.756;2023-08-20T02:25:34;15.88;;;12.98;;
7179;SDS011;3631;42.152;24.756;2023-08-20T02:28:37;14.38;;;12.90;;
7179;SDS011;3631;42.152;24.756;2023-08-20T02:31:39;13.30;;;12.10;;
7179;SDS011;3631;42.152;24.756;2023-08-20T02:34:43;14.32;;;12.32;;
7179;SDS011;3631;42.152;24.756;2023-08-20T02:37:43;18.83;;;12.77;;
7179;SDS011;3631;42.152;24.756;2023-08-20T02:46:50;16.52;;;11.85;;
7179;SDS011;3631;42.152;24.756;2023-08-20T02:49:56;17.67;;;11.80;;
7179;SDS011;3631;42.152;24.756;2023-08-20T02:52:57;14.98;;;11.70;;
7179;SDS011;3631;42.152;24.756;2023-08-20T03:02:14;12.05;;;10.98;;
7179;SDS011;3631;42.152;24.756;2023-08-20T03:05:08;12.68;;;11.40;;
7179;SDS011;3631;42.152;24.756;2023-08-20T03:07:44;13.73;;;10.88;;
7179;SDS011;3631;42.152;24.756;2023-08-20T03:10:12;12.88;;;11.38;;
7179;SDS011;3631;42.152;24.756;2023-08-20T03:12:40;11.98;;;10.77;;
7179;SDS011;3631;42.152;24.756;2023-08-20T03:15:11;24.45;;;11.32;;
7179;SDS011;3631;42.152;24.756;2023-08-20T03:17:51;14.07;;;10.95;;
7179;SDS011;3631;42.152;24.756;2023-08-20T03:20:21;12.98;;;11.52;;
7179;SDS011;3631;42.152;24.756;2023-08-20T03:23:03;10.90;;;9.98;;
7179;SDS011;3631;42.152;24.756;2023-08-20T03:25:59;11.80;;;10.63;;
7179;SDS011;3631;42.152;24.756;2023-08-20T03:28:59;12.63;;;9.98;;
7179;SDS011;3631;42.152;24.756;2023-08-20T03:31:54;12.10;;;10.50;;
7179;SDS011;3631;42.152;24.756;2023-08-20T03:34:39;11.85;;;10.65;;
7179;SDS011;3631;42.152;24.756;2023-08-20T03:37:09;10.95;;;9.95;;
7179;SDS011;3631;42.152;24.756;2023-08-20T03:39:39;12.45;;;9.65;;
7179;SDS011;3631;42.152;24.756;2023-08-20T03:42:14;10.70;;;9.48;;
7179;SDS011;3631;42.152;24.756;2023-08-20T03:45:03;11.32;;;9.95;;
7179;SDS011;3631;42.152;24.756;2023-08-20T03:47:53;11.15;;;9.48;;
7179;SDS011;3631;42.152;24.756;2023-08-20T03:50:28;9.65;;;8.85;;
7179;SDS011;3631;42.152;24.756;2023-08-20T03:53:07;10.20;;;9.30;;
7179;SDS011;3631;42.152;24.756;2023-08-20T03:55:49;10.40;;;9.23;;
7179;SDS011;3631;42.152;24.756;2023-08-20T03:58:30;16.08;;;9.75;;
7179;SDS011;3631;42.152;24.756;2023-08-20T04:01:14;10.07;;;9.18;;
7179;SDS011;3631;42.152;24.756;2023-08-20T04:03:53;13.32;;;9.52;;
7179;SDS011;3631;42.152;24.756;2023-08-20T04:06:31;12.52;;;10.52;;
7179;SDS011;3631;42.152;24.756;2023-08-20T04:09:06;11.20;;;10.20;;
7179;SDS011;3631;42.152;24.756;2023-08-20T04:11:39;11.40;;;10.38;;
7179;SDS011;3631;42.152;24.756;2023-08-20T04:14:16;11.27;;;10.00;;
7179;SDS011;3631;42.152;24.756;2023-08-20T04:16:48;12.45;;;10.32;;
7179;SDS011;3631;42.152;24.756;2023-08-20T04:19:29;12.15;;;10.55;;
7179;SDS011;3631;42.152;24.756;2023-08-20T04:22:11;12.52;;;10.40;;
7179;SDS011;3631;42.152;24.756;2023-08-20T04:24:58;10.23;;;9.43;;
7179;SDS011;3631;42.152;24.756;2023-08-20T04:27:29;11.15;;;10.15;;
7179;SDS011;3631;42.152;24.756;2023-08-20T04:30:10;10.75;;;9.70;;
7179;SDS011;3631;42.152;24.756;2023-08-20T04:32:50;16.67;;;14.82;;
7179;SDS011;3631;42.152;24.756;2023-08-20T04:35:24;10.38;;;9.43;;
7179;SDS011;3631;42.152;24.756;2023-08-20T04:38:10;10.55;;;9.50;;
7179;SDS011;3631;42.152;24.756;2023-08-20T04:40:51;15.02;;;11.77;;
7179;SDS011;3631;42.152;24.756;2023-08-20T04:43:27;13.57;;;12.20;;
7179;SDS011;3631;42.152;24.756;2023-08-20T04:46:03;13.10;;;9.52;;
7179;SDS011;3631;42.152;24.756;2023-08-20T04:48:35;9.43;;;8.77;;
7179;SDS011;3631;42.152;24.756;2023-08-20T04:51:13;9.63;;;8.82;;
7179;SDS011;3631;42.152;24.756;2023-08-20T04:53:46;9.63;;;8.80;;
7179;SDS011;3631;42.152;24.756;2023-08-20T04:56:21;11.43;;;8.77;;
7179;SDS011;3631;42.152;24.756;2023-08-20T04:59:04;10.95;;;8.85;;
7179;SDS011;3631;42.152;24.756;2023-08-20T05:01:56;12.13;;;9.07;;
7179;SDS011;3631;42.152;24.756;2023-08-20T05:04:41;8.95;;;8.25;;
7179;SDS011;3631;42.152;24.756;2023-08-20T05:07:25;12.45;;;9.82;;
7179;SDS011;3631;42.152;24.756;2023-08-20T05:10:01;23.60;;;16.08;;
7179;SDS011;3631;42.152;24.756;2023-08-20T05:12:43;17.17;;;14.75;;
7179;SDS011;3631;42.152;24.756;2023-08-20T05:15:20;12.32;;;11.07;;
7179;SDS011;3631;42.152;24.756;2023-08-20T05:17:54;18.55;;;15.38;;
7179;SDS011;3631;42.152;24.756;2023-08-20T05:20:26;10.77;;;9.75;;
7179;SDS011;3631;42.152;24.756;2023-08-20T05:22:59;11.52;;;10.50;;
7179;SDS011;3631;42.152;24.756;2023-08-20T05:25:37;15.70;;;14.02;;
7179;SDS011;3631;42.152;24.756;2023-08-20T05:28:08;13.35;;;12.00;;
7179;SDS011;3631;42.152;24.756;2023-08-20T05:30:40;31.10;;;22.35;;
7179;SDS011;3631;42.152;24.756;2023-08-20T05:33:16;14.18;;;12.77;;
7179;SDS011;3631;42.152;24.756;2023-08-20T05:35:58;12.80;;;11.60;;
7179;SDS011;3631;42.152;24.756;2023-08-20T05:38:45;14.63;;;13.10;;
7179;SDS011;3631;42.152;24.756;2023-08-20T05:41:16;17.95;;;13.48;;
7179;SDS011;3631;42.152;24.756;2023-08-20T05:43:43;12.70;;;11.40;;
7179;SDS011;3631;42.152;24.756;2023-08-20T05:46:10;12.20;;;11.05;;
7179;SDS011;3631;42.152;24.756;2023-08-20T05:48:37;18.00;;;14.68;;
7179;SDS011;3631;42.152;24.756;2023-08-20T05:51:05;14.90;;;12.55;;
7179;SDS011;3631;42.152;24.756;2023-08-20T05:53:32;12.63;;;11.10;;
7179;SDS011;3631;42.152;24.756;2023-08-20T05:56:00;14.15;;;11.30;;
7179;SDS011;3631;42.152;24.756;2023-08-20T05:58:29;13.00;;;11.70;;
7179;SDS011;3631;42.152;24.756;2023-08-20T06:00:56;13.18;;;11.98;;
7179;SDS011;3631;42.152;24.756;2023-08-20T06:03:25;21.73;;;17.27;;
7179;SDS011;3631;42.152;24.756;2023-08-20T06:05:53;15.10;;;13.63;;
7179;SDS011;3631;42.152;24.756;2023-08-20T06:08:23;18.85;;;15.15;;
7179;SDS011;3631;42.152;24.756;2023-08-20T06:10:50;21.25;;;14.02;;
7179;SDS011;3631;42.152;24.756;2023-08-20T06:13:19;20.45;;;16.15;;
7179;SDS011;3631;42.152;24.756;2023-08-20T06:15:48;13.73;;;12.32;;
7179;SDS011;3631;42.152;24.756;2023-08-20T06:18:22;13.98;;;11.32;;
7179;SDS011;3631;42.152;24.756;2023-08-20T06:20:56;11.75;;;10.50;;
7179;SDS011;3631;42.152;24.756;2023-08-20T06:23:24;13.27;;;11.30;;
7179;SDS011;3631;42.152;24.756;2023-08-20T06:25:51;12.05;;;10.85;;
7179;SDS011;3631;42.152;24.756;2023-08-20T06:28:19;12.90;;;11.60;;
7179;SDS011;3631;42.152;24.756;2023-08-20T06:31:14;11.85;;;10.73;;
7179;SDS011;3631;42.152;24.756;2023-08-20T06:34:09;12.23;;;11.05;;
7179;SDS011;3631;42.152;24.756;2023-08-20T06:36:45;11.77;;;10.98;;
7179;SDS011;3631;42.152;24.756;2023-08-20T06:42:19;14.30;;;12.25;;
7179;SDS011;3631;42.152;24.756;2023-08-20T06:45:01;14.32;;;11.77;;
7179;SDS011;3631;42.152;24.756;2023-08-20T06:47:40;17.65;;;14.93;;
7179;SDS011;3631;42.152;24.756;2023-08-20T06:50:22;14.32;;;12.60;;
7179;SDS011;3631;42.152;24.756;2023-08-20T06:53:16;12.60;;;11.38;;
7179;SDS011;3631;42.152;24.756;2023-08-20T06:56:03;12.18;;;11.07;;
7179;SDS011;3631;42.152;24.756;2023-08-20T06:58:54;14.05;;;12.68;;
7179;SDS011;3631;42.152;24.756;2023-08-20T07:01:46;14.35;;;12.98;;
7179;SDS011;3631;42.152;24.756;2023-08-20T07:07:38;12.48;;;11.27;;
7179;SDS011;3631;42.152;24.756;2023-08-20T07:10:26;11.27;;;10.32;;
7179;SDS011;3631;42.152;24.756;2023-08-20T07:13:38;22.27;;;16.88;;
7179;SDS011;3631;42.152;24.756;2023-08-20T07:19:52;11.95;;;10.82;;
7179;SDS011;3631;42.152;24.756;2023-08-20T07:23:00;14.45;;;13.20;;
7179;SDS011;3631;42.152;24.756;2023-08-20T07:26:07;11.00;;;10.20;;
7179;SDS011;3631;42.152;24.756;2023-08-20T07:29:04;15.45;;;14.05;;
7179;SDS011;3631;42.152;24.756;2023-08-20T07:32:04;10.25;;;9.50;;
7179;SDS011;3631;42.152;24.756;2023-08-20T07:35:09;12.68;;;11.40;;
7179;SDS011;3631;42.152;24.756;2023-08-20T07:38:15;12.40;;;11.30;;
7179;SDS011;3631;42.152;24.756;2023-08-20T07:41:21;11.77;;;10.85;;
7179;SDS011;3631;42.152;24.756;2023-08-20T07:44:30;10.23;;;9.43;;
7179;SDS011;3631;42.152;24.756;2023-08-20T07:47:33;11.52;;;10.43;;
7179;SDS011;3631;42.152;24.756;2023-08-20T07:54:06;12.80;;;11.82;;
7179;SDS011;3631;42.152;24.756;2023-08-20T07:57:07;11.60;;;10.40;;
7179;SDS011;3631;42.152;24.756;2023-08-20T08:00:06;12.88;;;11.85;;
7179;SDS011;3631;42.152;24.756;2023-08-20T08:02:55;16.83;;;15.32;;
7179;SDS011;3631;42.152;24.756;2023-08-20T08:05:48;12.32;;;10.20;;
7179;SDS011;3631;42.152;24.756;2023-08-20T08:08:41;10.77;;;9.90;;
7179;SDS011;3631;42.152;24.756;2023-08-20T08:12:02;10.52;;;9.73;;
7179;SDS011;3631;42.152;24.756;2023-08-20T08:15:06;10.13;;;9.32;;
7179;SDS011;3631;42.152;24.756;2023-08-20T08:18:34;8.90;;;8.23;;
7179;SDS011;3631;42.152;24.756;2023-08-20T08:21:36;14.65;;;11.73;;
7179;SDS011;3631;42.152;24.756;2023-08-20T08:24:43;8.85;;;8.15;;
7179;SDS011;3631;42.152;24.756;2023-08-20T08:27:44;12.00;;;10.25;;
7179;SDS011;3631;42.152;24.756;2023-08-20T08:30:34;9.63;;;8.57;;
7179;SDS011;3631;42.152;24.756;2023-08-20T08:33:11;7.65;;;6.60;;
7179;SDS011;3631;42.152;24.756;2023-08-20T08:36:11;8.45;;;6.45;;
7179;SDS011;3631;42.152;24.756;2023-08-20T08:39:13;8.18;;;7.45;;
7179;SDS011;3631;42.152;24.756;2023-08-20T08:45:42;7.38;;;6.78;;
7179;SDS011;3631;42.152;24.756;2023-08-20T08:48:48;7.18;;;6.47;;
7179;SDS011;3631;42.152;24.756;2023-08-20T08:55:13;7.53;;;7.07;;
7179;SDS011;3631;42.152;24.756;2023-08-20T08:58:04;7.90;;;7.40;;
7179;SDS011;3631;42.152;24.756;2023-08-20T09:04:26;11.00;;;9.88;;
7179;SDS011;3631;42.152;24.756;2023-08-20T09:07:26;8.95;;;8.20;;
7179;SDS011;3631;42.152;24.756;2023-08-20T09:10:24;7.88;;;7.18;;
7179;SDS011;3631;42.152;24.756;2023-08-20T09:13:41;7.03;;;6.65;;
7179;SDS011;3631;42.152;24.756;2023-08-20T09:16:53;7.78;;;7.00;;
7179;SDS011;3631;42.152;24.756;2023-08-20T09:20:18;8.88;;;6.82;;
7179;SDS011;3631;42.152;24.756;2023-08-20T09:23:23;10.00;;;7.22;;
7179;SDS011;3631;42.152;24.756;2023-08-20T09:26:31;7.05;;;6.55;;
7179;SDS011;3631;42.152;24.756;2023-08-20T09:29:43;7.05;;;6.63;;
7179;SDS011;3631;42.152;24.756;2023-08-20T09:32:52;8.48;;;7.88;;
7179;SDS011;3631;42.152;24.756;2023-08-20T09:36:06;9.10;;;7.20;;
7179;SDS011;3631;42.152;24.756;2023-08-20T09:39:00;8.00;;;7.25;;
7179;SDS011;3631;42.152;24.756;2023-08-20T09:41:50;9.00;;;7.50;;
7179;SDS011;3631;42.152;24.756;2023-08-20T09:44:42;7.30;;;6.90;;
7179;SDS011;3631;42.152;24.756;2023-08-20T09:47:16;14.73;;;11.98;;
7179;SDS011;3631;42.152;24.756;2023-08-20T09:49:54;8.35;;;7.65;;
7179;SDS011;3631;42.152;24.756;2023-08-20T09:52:28;6.47;;;6.07;;
7179;SDS011;3631;42.152;24.756;2023-08-20T09:55:17;6.97;;;6.25;;
7179;SDS011;3631;42.152;24.756;2023-08-20T09:58:01;8.15;;;6.22;;
7179;SDS011;3631;42.152;24.756;2023-08-20T10:00:42;6.57;;;6.18;;
7179;SDS011;3631;42.152;24.756;2023-08-20T10:03:17;6.50;;;5.82;;
7179;SDS011;3631;42.152;24.756;2023-08-20T10:05:51;6.93;;;6.43;;
7179;SDS011;3631;42.152;24.756;2023-08-20T10:08:19;7.47;;;6.97;;
7179;SDS011;3631;42.152;24.756;2023-08-20T10:10:52;7.28;;;6.25;;
7179;SDS011;3631;42.152;24.756;2023-08-20T10:13:26;9.50;;;8.75;;
7179;SDS011;3631;42.152;24.756;2023-08-20T10:16:04;6.05;;;5.45;;
7179;SDS011;3631;42.152;24.756;2023-08-20T10:18:35;6.70;;;6.13;;
7179;SDS011;3631;42.152;24.756;2023-08-20T10:21:21;6.93;;;6.28;;
7179;SDS011;3631;42.152;24.756;2023-08-20T10:24:03;6.68;;;6.07;;
7179;SDS011;3631;42.152;24.756;2023-08-20T10:26:38;7.13;;;6.68;;
7179;SDS011;3631;42.152;24.756;2023-08-20T10:29:40;6.85;;;6.25;;
7179;SDS011;3631;42.152;24.756;2023-08-20T10:32:15;6.95;;;6.38;;
7179;SDS011;3631;42.152;24.756;2023-08-20T10:34:52;6.82;;;6.18;;
7179;SDS011;3631;42.152;24.756;2023-08-20T10:40:49;8.25;;;6.28;;
7179;SDS011;3631;42.152;24.756;2023-08-20T10:43:26;8.20;;;7.28;;
7179;SDS011;3631;42.152;24.756;2023-08-20T10:48:47;7.53;;;6.93;;
7179;SDS011;3631;42.152;24.756;2023-08-20T10:51:25;6.95;;;6.55;;
7179;SDS011;3631;42.152;24.756;2023-08-20T10:54:04;7.93;;;7.13;;
7179;SDS011;3631;42.152;24.756;2023-08-20T10:56:39;7.03;;;6.47;;
7179;SDS011;3631;42.152;24.756;2023-08-20T10:59:13;7.60;;;6.18;;
7179;SDS011;3631;42.152;24.756;2023-08-20T11:01:42;6.88;;;6.47;;
7179;SDS011;3631;42.152;24.756;2023-08-20T11:04:15;7.45;;;6.75;;
7179;SDS011;3631;42.152;24.756;2023-08-20T11:06:44;8.55;;;7.78;;
7179;SDS011;3631;42.152;24.756;2023-08-20T11:09:12;9.10;;;8.38;;
7179;SDS011;3631;42.152;24.756;2023-08-20T11:11:47;8.23;;;7.53;;
7179;SDS011;3631;42.152;24.756;2023-08-20T11:14:20;7.20;;;6.65;;
7179;SDS011;3631;42.152;24.756;2023-08-20T11:16:54;7.78;;;7.03;;
7179;SDS011;3631;42.152;24.756;2023-08-20T11:19:31;6.78;;;6.20;;
7179;SDS011;3631;42.152;24.756;2023-08-20T11:22:08;6.50;;;6.00;;
7179;SDS011;3631;42.152;24.756;2023-08-20T11:24:46;7.00;;;6.60;;
7179;SDS011;3631;42.152;24.756;2023-08-20T11:27:32;7.35;;;6.68;;
7179;SDS011;3631;42.152;24.756;2023-08-20T11:30:12;8.65;;;6.82;;
7179;SDS011;3631;42.152;24.756;2023-08-20T11:32:49;7.60;;;7.07;;
7179;SDS011;3631;42.152;24.756;2023-08-20T11:35:22;9.02;;;6.80;;
7179;SDS011;3631;42.152;24.756;2023-08-20T11:38:00;6.97;;;6.40;;
7179;SDS011;3631;42.152;24.756;2023-08-20T11:40:36;10.68;;;6.53;;
7179;SDS011;3631;42.152;24.756;2023-08-20T11:46:14;8.80;;;6.90;;
7179;SDS011;3631;42.152;24.756;2023-08-20T11:51:51;6.75;;;6.25;;
7179;SDS011;3631;42.152;24.756;2023-08-20T11:54:35;9.15;;;6.82;;
7179;SDS011;3631;42.152;24.756;2023-08-20T11:57:10;6.50;;;5.82;;
7179;SDS011;3631;42.152;24.756;2023-08-20T11:59:51;6.47;;;5.97;;
7179;SDS011;3631;42.152;24.756;2023-08-20T12:02:35;6.75;;;6.22;;
7179;SDS011;3631;42.152;24.756;2023-08-20T12:05:27;6.97;;;6.25;;
7179;SDS011;3631;42.152;24.756;2023-08-20T12:08:05;6.40;;;6.00;;
7179;SDS011;3631;42.152;24.756;2023-08-20T12:10:50;6.40;;;6.10;;
7179;SDS011;3631;42.152;24.756;2023-08-20T12:13:32;7.18;;;6.47;;
7179;SDS011;3631;42.152;24.756;2023-08-20T12:16:05;6.85;;;6.45;;
7179;SDS011;3631;42.152;24.756;2023-08-20T12:18:43;7.30;;;5.88;;
7179;SDS011;3631;42.152;24.756;2023-08-20T12:21:18;7.93;;;6.50;;
7179;SDS011;3631;42.152;24.756;2023-08-20T12:24:08;7.25;;;6.65;;
7179;SDS011;3631;42.152;24.756;2023-08-20T12:26:55;6.95;;;6.57;;
7179;SDS011;3631;42.152;24.756;2023-08-20T12:29:25;8.23;;;7.53;;
7179;SDS011;3631;42.152;24.756;2023-08-20T12:32:00;6.03;;;5.40;;
7179;SDS011;3631;42.152;24.756;2023-08-20T12:34:35;7.47;;;6.88;;
7179;SDS011;3631;42.152;24.756;2023-08-20T12:37:07;7.63;;;6.93;;
7179;SDS011;3631;42.152;24.756;2023-08-20T12:39:45;6.68;;;5.78;;
7179;SDS011;3631;42.152;24.756;2023-08-20T12:42:17;7.05;;;6.47;;
7179;SDS011;3631;42.152;24.756;2023-08-20T12:44:49;6.72;;;6.20;;
7179;SDS011;3631;42.152;24.756;2023-08-20T12:47:22;7.95;;;6.82;;
7179;SDS011;3631;42.152;24.756;2023-08-20T12:49:58;7.35;;;6.63;;
7179;SDS011;3631;42.152;24.756;2023-08-20T12:52:56;6.65;;;6.05;;
7179;SDS011;3631;42.152;24.756;2023-08-20T12:55:53;7.60;;;7.03;;
7179;SDS011;3631;42.152;24.756;2023-08-20T12:58:25;6.30;;;5.90;;
7179;SDS011;3631;42.152;24.756;2023-08-20T13:00:53;6.65;;;6.15;;
7179;SDS011;3631;42.152;24.756;2023-08-20T13:03:26;7.25;;;6.78;;
7179;SDS011;3631;42.152;24.756;2023-08-20T13:06:02;6.32;;;5.93;;
7179;SDS011;3631;42.152;24.756;2023-08-20T13:08:54;6.90;;;6.30;;
7179;SDS011;3631;42.152;24.756;2023-08-20T13:11:36;7.05;;;6.43;;
7179;SDS011;3631;42.152;24.756;2023-08-20T13:14:20;6.97;;;6.43;;
7179;SDS011;3631;42.152;24.756;2023-08-20T13:17:10;6.43;;;5.93;;
7179;SDS011;3631;42.152;24.756;2023-08-20T13:19:58;7.43;;;6.70;;
7179;SDS011;3631;42.152;24.756;2023-08-20T13:22:47;6.10;;;5.57;;
7179;SDS011;3631;42.152;24.756;2023-08-20T13:25:38;6.72;;;6.22;;
7179;SDS011;3631;42.152;24.756;2023-08-20T13:28:28;6.40;;;5.90;;
7179;SDS011;3631;42.152;24.756;2023-08-20T13:31:04;6.30;;;6.00;;
7179;SDS011;3631;42.152;24.756;2023-08-20T13:33:45;7.60;;;5.55;;
7179;SDS011;3631;42.152;24.756;2023-08-20T13:36:38;7.90;;;5.88;;
7179;SDS011;3631;42.152;24.756;2023-08-20T13:39:10;5.90;;;5.30;;
7179;SDS011;3631;42.152;24.756;2023-08-20T13:41:49;6.35;;;5.25;;
7179;SDS011;3631;42.152;24.756;2023-08-20T13:44:29;6.93;;;5.57;;
7179;SDS011;3631;42.152;24.756;2023-08-20T13:47:28;6.43;;;5.93;;
7179;SDS011;3631;42.152;24.756;2023-08-20T13:50:22;9.32;;;6.05;;
7179;SDS011;3631;42.152;24.756;2023-08-20T13:53:30;9.85;;;5.60;;
7179;SDS011;3631;42.152;24.756;2023-08-20T13:56:30;5.60;;;5.18;;
7179;SDS011;3631;42.152;24.756;2023-08-20T13:59:22;6.10;;;5.60;;
7179;SDS011;3631;42.152;24.756;2023-08-20T14:02:08;5.93;;;5.38;;
7179;SDS011;3631;42.152;24.756;2023-08-20T14:05:05;5.43;;;4.93;;
7179;SDS011;3631;42.152;24.756;2023-08-20T14:07:44;7.00;;;6.40;;
7179;SDS011;3631;42.152;24.756;2023-08-20T14:14:12;6.20;;;5.60;;
7179;SDS011;3631;42.152;24.756;2023-08-20T14:17:23;7.80;;;7.20;;
7179;SDS011;3631;42.152;24.756;2023-08-20T14:20:31;7.20;;;5.85;;
7179;SDS011;3631;42.152;24.756;2023-08-20T14:23:33;10.15;;;6.20;;
7179;SDS011;3631;42.152;24.756;2023-08-20T14:26:39;6.10;;;5.50;;
7179;SDS011;3631;42.152;24.756;2023-08-20T14:29:40;5.50;;;5.10;;
7179;SDS011;3631;42.152;24.756;2023-08-20T14:35:54;5.68;;;5.38;;
7179;SDS011;3631;42.152;24.756;2023-08-20T14:38:45;6.50;;;6.03;;
7179;SDS011;3631;42.152;24.756;2023-08-20T14:41:56;7.70;;;6.47;;
7179;SDS011;3631;42.152;24.756;2023-08-20T14:45:04;5.97;;;5.68;;
7179;SDS011;3631;42.152;24.756;2023-08-20T14:47:57;7.13;;;6.10;;
7179;SDS011;3631;42.152;24.756;2023-08-20T14:50:57;7.47;;;6.60;;
7179;SDS011;3631;42.152;24.756;2023-08-20T14:53:56;7.35;;;6.63;;
7179;SDS011;3631;42.152;24.756;2023-08-20T14:56:55;6.22;;;5.82;;
7179;SDS011;3631;42.152;24.756;2023-08-20T14:59:49;5.85;;;5.45;;
7179;SDS011;3631;42.152;24.756;2023-08-20T15:02:59;6.35;;;5.75;;
7179;SDS011;3631;42.152;24.756;2023-08-20T15:05:57;5.72;;;5.43;;
7179;SDS011;3631;42.152;24.756;2023-08-20T15:08:56;6.85;;;5.97;;
7179;SDS011;3631;42.152;24.756;2023-08-20T15:11:47;5.75;;;5.35;;
7179;SDS011;3631;42.152;24.756;2023-08-20T15:14:43;6.50;;;5.80;;
7179;SDS011;3631;42.152;24.756;2023-08-20T15:17:46;6.18;;;5.63;;
7179;SDS011;3631;42.152;24.756;2023-08-20T15:21:07;5.40;;;5.10;;
7179;SDS011;3631;42.152;24.756;2023-08-20T15:24:20;5.55;;;5.18;;
7179;SDS011;3631;42.152;24.756;2023-08-20T15:27:24;6.47;;;5.97;;
7179;SDS011;3631;42.152;24.756;2023-08-20T15:30:30;6.20;;;5.60;;
7179;SDS011;3631;42.152;24.756;2023-08-20T15:33:44;6.00;;;5.55;;
7179;SDS011;3631;42.152;24.756;2023-08-20T15:40:27;5.97;;;5.57;;
7179;SDS011;3631;42.152;24.756;2023-08-20T15:43:38;6.30;;;5.68;;
7179;SDS011;3631;42.152;24.756;2023-08-20T15:46:49;6.57;;;5.90;;
7179;SDS011;3631;42.152;24.756;2023-08-20T15:49:50;7.45;;;6.63;;
7179;SDS011;3631;42.152;24.756;2023-08-20T15:52:30;7.20;;;6.63;;
7179;SDS011;3631;42.152;24.756;2023-08-20T15:55:04;7.53;;;5.80;;
7179;SDS011;3631;42.152;24.756;2023-08-20T15:57:38;7.70;;;6.35;;
7179;SDS011;3631;42.152;24.756;2023-08-20T16:00:07;7.18;;;6.57;;
7179;SDS011;3631;42.152;24.756;2023-08-20T16:02:41;7.25;;;6.35;;
7179;SDS011;3631;42.152;24.756;2023-08-20T16:05:16;10.70;;;6.40;;
7179;SDS011;3631;42.152;24.756;2023-08-20T16:11:15;6.70;;;6.25;;
7179;SDS011;3631;42.152;24.756;2023-08-20T16:14:04;10.00;;;5.85;;
7179;SDS011;3631;42.152;24.756;2023-08-20T16:17:03;7.93;;;6.43;;
7179;SDS011;3631;42.152;24.756;2023-08-20T16:19:49;8.90;;;6.53;;
7179;SDS011;3631;42.152;24.756;2023-08-20T16:22:23;7.13;;;6.53;;
7179;SDS011;3631;42.152;24.756;2023-08-20T16:25:18;8.15;;;6.70;;
7179;SDS011;3631;42.152;24.756;2023-08-20T16:28:09;7.55;;;6.60;;
7179;SDS011;3631;42.152;24.756;2023-08-20T16:30:42;6.43;;;5.88;;
7179;SDS011;3631;42.152;24.756;2023-08-20T16:33:13;7.57;;;6.90;;
7179;SDS011;3631;42.152;24.756;2023-08-20T16:35:50;7.25;;;6.50;;
7179;SDS011;3631;42.152;24.756;2023-08-20T16:38:30;9.23;;;6.40;;
7179;SDS011;3631;42.152;24.756;2023-08-20T16:41:08;6.68;;;6.25;;
7179;SDS011;3631;42.152;24.756;2023-08-20T16:43:41;7.40;;;6.88;;
7179;SDS011;3631;42.152;24.756;2023-08-20T16:46:18;7.78;;;7.07;;
7179;SDS011;3631;42.152;24.756;2023-08-20T16:49:00;7.55;;;6.22;;
7179;SDS011;3631;42.152;24.756;2023-08-20T16:51:50;7.63;;;7.03;;
7179;SDS011;3631;42.152;24.756;2023-08-20T16:54:26;10.00;;;6.55;;
7179;SDS011;3631;42.152;24.756;2023-08-20T16:57:06;9.68;;;6.53;;
7179;SDS011;3631;42.152;24.756;2023-08-20T16:59:43;8.13;;;7.40;;
7179;SDS011;3631;42.152;24.756;2023-08-20T17:02:23;8.07;;;7.45;;
7179;SDS011;3631;42.152;24.756;2023-08-20T17:05:00;7.97;;;7.20;;
7179;SDS011;3631;42.152;24.756;2023-08-20T17:07:30;7.68;;;6.88;;
7179;SDS011;3631;42.152;24.756;2023-08-20T17:10:02;7.88;;;6.80;;
7179;SDS011;3631;42.152;24.756;2023-08-20T17:12:47;7.63;;;6.95;;
7179;SDS011;3631;42.152;24.756;2023-08-20T17:15:37;7.60;;;7.00;;
7179;SDS011;3631;42.152;24.756;2023-08-20T17:18:09;7.93;;;7.32;;
7179;SDS011;3631;42.152;24.756;2023-08-20T17:20:44;6.93;;;6.22;;
7179;SDS011;3631;42.152;24.756;2023-08-20T17:23:24;8.40;;;7.60;;
7179;SDS011;3631;42.152;24.756;2023-08-20T17:29:42;8.85;;;7.43;;
7179;SDS011;3631;42.152;24.756;2023-08-20T17:32:21;6.90;;;6.45;;
7179;SDS011;3631;42.152;24.756;2023-08-20T17:35:01;7.68;;;6.90;;
7179;SDS011;3631;42.152;24.756;2023-08-20T17:37:35;10.43;;;6.85;;
7179;SDS011;3631;42.152;24.756;2023-08-20T17:40:16;9.77;;;8.75;;
7179;SDS011;3631;42.152;24.756;2023-08-20T17:42:53;11.27;;;10.13;;
7179;SDS011;3631;42.152;24.756;2023-08-20T17:45:37;13.57;;;9.70;;
7179;SDS011;3631;42.152;24.756;2023-08-20T17:48:31;8.77;;;8.00;;
7179;SDS011;3631;42.152;24.756;2023-08-20T17:51:26;8.57;;;7.47;;
7179;SDS011;3631;42.152;24.756;2023-08-20T17:54:02;9.73;;;7.40;;
7179;SDS011;3631;42.152;24.756;2023-08-20T17:56:35;11.88;;;7.78;;
7179;SDS011;3631;42.152;24.756;2023-08-20T17:59:19;8.75;;;7.88;;
7179;SDS011;3631;42.152;24.756;2023-08-20T18:01:54;6.82;;;6.20;;
7179;SDS011;3631;42.152;24.756;2023-08-20T18:04:31;9.85;;;6.93;;
7179;SDS011;3631;42.152;24.756;2023-08-20T18:07:05;7.97;;;7.20;;
7179;SDS011;3631;42.152;24.756;2023-08-20T18:09:37;7.82;;;6.53;;
7179;SDS011;3631;42.152;24.756;2023-08-20T18:12:09;9.80;;;6.97;;